createdAt,value
2022-11-19T01:01:45.535Z,90.86
2022-11-19T01:06:47.678Z,90.96
2022-11-19T01:11:46.786Z,89.31
2022-11-19T01:16:47.888Z,89.46
2022-11-19T01:21:49.008Z,89.56
2022-11-19T01:26:50.103Z,89.36
2022-11-19T01:31:52.203Z,89.36
2022-11-19T01:36:51.279Z,89.36
2022-11-19T01:41:52.362Z,89.25
2022-11-19T01:46:53.449Z,88.95
2022-11-19T01:51:54.538Z,88.74
2022-11-19T01:56:56.635Z,88.84
2022-11-19T02:01:55.720Z,88.02
2022-11-19T02:06:56.854Z,88.02
2022-11-19T02:11:58.953Z,88.64
2022-11-19T02:16:59.028Z,89.36
2022-11-19T02:21:59.110Z,89.29
2022-11-19T02:26:59.195Z,89.50
2022-11-19T02:31:59.272Z,90.67
2022-11-19T02:36:58.402Z,91.30
2022-11-19T02:42:00.507Z,92.33
2022-11-19T02:46:59.624Z,92.94
2022-11-19T02:52:00.766Z,92.99
2022-11-19T02:57:03.172Z,93.30
2022-11-19T03:02:03.323Z,93.09
2022-11-19T03:07:02.467Z,93.60
2022-11-19T03:12:03.538Z,93.56
2022-11-19T03:17:04.625Z,91.19
2022-11-19T03:22:05.703Z,90.67
2022-11-19T03:27:06.796Z,90.67
2022-11-19T03:32:09.884Z,90.78
2022-11-19T03:37:08.968Z,90.01
2022-11-19T03:42:13.073Z,90.47
2022-11-19T03:47:10.161Z,89.65
2022-11-19T03:52:13.248Z,88.57
2022-11-19T03:57:13.358Z,88.68
2022-11-19T04:02:12.489Z,90.94
2022-11-19T04:07:13.794Z,91.09
2022-11-19T04:12:14.962Z,91.15
2022-11-19T04:17:16.067Z,88.99
2022-11-19T04:22:18.165Z,89.71
2022-11-19T04:27:18.293Z,90.01
2022-11-19T04:32:18.526Z,90.26
2022-11-19T04:37:17.612Z,91.81
2022-11-19T04:42:18.713Z,92.68
2022-11-19T04:47:19.808Z,92.27
2022-11-19T04:52:20.900Z,92.06
2022-11-19T04:57:22.984Z,92.47
2022-11-19T05:02:23.067Z,93.09
2022-11-19T05:07:24.284Z,93.81
2022-11-19T05:12:23.363Z,93.54
2022-11-19T05:17:24.451Z,93.13
2022-11-19T05:22:26.532Z,93.13
2022-11-19T05:27:29.554Z,92.93
2022-11-19T05:32:26.639Z,92.37
2022-11-19T05:37:27.787Z,90.41
2022-11-19T05:42:33.755Z,89.48
2022-11-19T05:47:28.826Z,90.76
2022-11-19T05:52:30.925Z,91.94
2022-11-19T05:57:30.046Z,93.01
2022-11-19T06:02:31.254Z,93.94
2022-11-19T06:07:32.388Z,93.98
2022-11-19T06:12:34.485Z,94.09
2022-11-19T06:17:33.572Z,94.40
2022-11-19T06:22:34.677Z,94.96
2022-11-19T06:27:36.760Z,95.48
2022-11-19T06:32:36.841Z,95.99
2022-11-19T06:37:36.260Z,95.64
2022-11-19T06:42:37.360Z,95.43
2022-11-19T06:47:40.517Z,95.43
2022-11-19T06:52:39.627Z,95.64
2022-11-19T06:57:40.750Z,95.43
2022-11-19T07:02:42.920Z,96.11
2022-11-19T07:07:42.057Z,95.49
2022-11-19T07:12:43.231Z,95.80
2022-11-19T07:17:44.338Z,96.73
2022-11-19T07:22:45.473Z,97.34
2022-11-19T07:27:47.608Z,95.96
2022-11-19T07:32:47.730Z,95.09
2022-11-19T07:37:48.846Z,93.96
2022-11-19T07:42:47.971Z,92.16
2022-11-19T07:47:49.107Z,89.34
2022-11-19T07:52:50.216Z,87.40
2022-11-19T07:57:51.315Z,88.23
2022-11-19T08:02:52.420Z,87.98
2022-11-19T08:07:53.617Z,86.95
2022-11-19T08:12:55.737Z,86.33
2022-11-19T08:17:54.837Z,86.43
2022-11-19T08:22:56.920Z,87.26
2022-11-19T08:27:56.069Z,86.54
2022-11-19T08:32:58.178Z,85.51
2022-11-19T08:37:57.281Z,87.30
2022-11-19T08:42:58.405Z,86.27
2022-11-19T08:47:59.546Z,88.18
2022-11-19T08:53:00.754Z,87.28
2022-11-19T08:58:02.870Z,86.21
2022-11-19T09:03:01.949Z,83.19
2022-11-19T09:08:05.421Z,82.84
2022-11-19T09:13:02.608Z,82.68
2022-11-19T09:18:03.762Z,83.09
2022-11-19T09:23:03.900Z,82.99
2022-11-19T09:28:05.208Z,82.47
2022-11-19T09:33:08.348Z,82.33
2022-11-19T09:38:19.288Z,83.12
2022-11-19T09:43:14.975Z,80.58
2022-11-19T09:48:10.384Z,79.11
2022-11-19T09:53:09.540Z,80.21
2022-11-19T09:58:11.659Z,76.24
2022-11-19T10:03:10.849Z,74.63
2022-11-19T10:08:11.988Z,75.79
2022-11-19T10:13:13.196Z,74.87
2022-11-19T10:18:13.265Z,74.22
2022-11-19T10:23:14.355Z,76.64
2022-11-19T10:28:15.487Z,76.03
2022-11-19T10:33:16.582Z,77.87
2022-11-19T10:38:18.667Z,74.69
2022-11-19T10:43:22.071Z,72.86
2022-11-19T10:48:17.867Z,71.26
2022-11-19T10:53:19.965Z,71.73
2022-11-19T10:58:20.060Z,68.37
2022-11-19T11:03:20.136Z,68.87
2022-11-19T11:08:20.262Z,71.15
2022-11-19T11:13:19.420Z,65.74
2022-11-19T11:18:20.574Z,67.47
2022-11-19T11:23:21.704Z,68.19
2022-11-19T11:28:23.815Z,66.08
2022-11-19T11:33:24.056Z,65.42
2022-11-19T11:38:24.151Z,63.65
2022-11-19T11:43:23.283Z,63.42
2022-11-19T11:48:24.447Z,62.96
2022-11-19T11:53:27.557Z,61.54
2022-11-19T11:58:26.750Z,62.52
2022-11-19T12:03:28.841Z,63.26
2022-11-19T12:08:28.940Z,64.73
2022-11-19T12:13:29.079Z,62.94
2022-11-19T12:18:29.200Z,63.41
2022-11-19T12:23:29.318Z,64.54
2022-11-19T12:28:29.433Z,63.18
2022-11-19T12:33:29.539Z,64.78
2022-11-19T12:38:29.657Z,60.50
2022-11-19T12:43:29.754Z,58.47
2022-11-19T12:48:28.877Z,61.73
2022-11-19T12:53:29.963Z,62.49
2022-11-19T12:58:31.106Z,63.64
2022-11-19T13:03:32.241Z,66.42
2022-11-19T13:08:33.353Z,72.55
2022-11-19T13:13:35.474Z,73.20
2022-11-19T13:18:35.626Z,73.13
2022-11-19T13:23:34.796Z,72.72
2022-11-19T13:28:35.944Z,73.54
2022-11-19T13:33:38.054Z,71.80
2022-11-19T13:38:37.234Z,73.78
2022-11-19T13:43:38.726Z,75.21
2022-11-19T13:48:37.883Z,74.90
2022-11-19T13:53:39.147Z,75.55
2022-11-19T13:58:40.373Z,75.52
2022-11-19T14:03:41.614Z,75.86
2022-11-19T14:08:43.137Z,77.29
2022-11-19T14:13:43.249Z,76.47
2022-11-19T14:18:43.369Z,75.93
2022-11-19T14:23:42.580Z,77.87
2022-11-19T14:28:43.767Z,78.39
2022-11-19T14:33:44.941Z,78.90
2022-11-19T14:38:47.103Z,79.62
2022-11-19T14:43:46.328Z,78.94
2022-11-19T14:48:47.678Z,79.69
2022-11-19T14:53:49.850Z,79.69
2022-11-19T14:58:48.945Z,80.00
2022-11-19T15:03:51.090Z,80.55
2022-11-19T15:08:50.207Z,80.04
2022-11-19T15:13:52.298Z,80.24
2022-11-19T15:18:51.435Z,80.24
2022-11-19T15:23:52.635Z,80.24
2022-11-19T15:28:53.733Z,81.06
2022-11-19T15:33:55.067Z,80.76
2022-11-19T15:38:57.259Z,80.51
2022-11-19T15:43:56.549Z,79.80
2022-11-19T15:48:58.724Z,80.41
2022-11-19T15:53:57.906Z,81.68
2022-11-19T15:58:59.097Z,80.65
2022-11-19T16:04:00.323Z,83.32
2022-11-19T16:09:02.447Z,82.84
2022-11-19T16:14:02.548Z,83.77
2022-11-19T16:19:01.911Z,84.01
2022-11-19T16:24:04.051Z,80.52
2022-11-19T16:29:03.252Z,82.27
2022-11-19T16:34:05.447Z,79.08
2022-11-19T16:39:04.575Z,76.58
2022-11-19T16:44:05.708Z,77.20
2022-11-19T16:49:08.858Z,78.53
2022-11-19T16:54:08.042Z,76.10
2022-11-19T16:59:09.248Z,76.72
2022-11-19T17:04:10.599Z,81.65
2022-11-19T17:09:12.065Z,82.27
2022-11-19T17:14:17.414Z,81.69
2022-11-19T17:19:14.667Z,80.15
2022-11-19T17:24:15.868Z,77.03
2022-11-19T17:29:18.247Z,76.72
2022-11-19T17:34:18.408Z,75.08
2022-11-19T17:39:22.549Z,74.63
2022-11-19T17:44:18.273Z,76.82
2022-11-19T17:49:17.859Z,78.06
2022-11-19T17:54:19.437Z,79.39
2022-11-19T17:59:19.431Z,82.00
2022-11-19T18:04:19.269Z,82.62
2022-11-19T18:09:19.445Z,83.03
2022-11-19T18:15:03.205Z,83.37
2022-11-19T18:19:18.737Z,82.86
2022-11-19T18:24:18.321Z,82.24
2022-11-19T18:29:20.128Z,80.60
2022-11-19T18:34:19.636Z,78.96
2022-11-19T18:39:20.596Z,80.60
2022-11-19T18:44:20.249Z,78.96
2022-11-19T18:49:19.961Z,79.02
2022-11-19T18:54:19.553Z,79.22
2022-11-19T18:59:19.372Z,80.19
2022-11-19T19:04:20.509Z,79.26
2022-11-19T19:09:20.674Z,81.52
2022-11-19T19:14:20.342Z,82.65
2022-11-19T19:19:22.090Z,82.48
2022-11-19T19:24:22.820Z,83.41
2022-11-19T19:29:23.316Z,81.83
2022-11-19T19:34:23.328Z,79.81
2022-11-19T19:39:24.397Z,79.88
2022-11-19T19:44:22.395Z,79.98
2022-11-19T19:49:22.531Z,80.60
2022-11-19T19:54:22.170Z,83.62
2022-11-19T19:59:21.817Z,82.28
2022-11-19T20:04:21.367Z,82.73
2022-11-19T20:09:20.855Z,83.76
2022-11-19T20:14:20.301Z,85.03
2022-11-19T20:20:05.775Z,84.42
2022-11-19T20:24:21.021Z,85.69
2022-11-19T20:29:22.937Z,86.45
2022-11-19T20:34:22.862Z,85.69
2022-11-19T20:39:22.489Z,87.03
2022-11-19T20:44:22.704Z,88.72
2022-11-19T20:49:23.710Z,89.89
2022-11-19T20:54:23.362Z,89.48
2022-11-19T20:59:25.815Z,90.31
2022-11-19T21:04:25.444Z,90.51
2022-11-19T21:09:25.406Z,90.47
2022-11-19T21:14:25.431Z,89.54
2022-11-19T21:19:24.903Z,89.85
2022-11-19T21:24:28.043Z,89.03
2022-11-19T21:29:27.258Z,88.26
2022-11-19T21:34:28.569Z,87.65
2022-11-19T21:39:29.845Z,86.88
2022-11-19T21:44:31.186Z,86.16
2022-11-19T21:49:32.503Z,86.58
2022-11-19T21:54:33.775Z,86.27
2022-11-19T21:59:34.988Z,85.61
2022-11-19T22:04:36.092Z,85.82
2022-11-19T22:09:37.353Z,85.82
2022-11-19T22:14:38.642Z,87.09
2022-11-19T22:19:39.796Z,86.47
